createdAt,value
2019-02-27T00:01:08.183Z,18.27
2019-02-27T00:03:39.286Z,17.52
2019-02-27T00:06:17.598Z,17.05
2019-02-27T00:08:51.800Z,16.80
2019-02-27T00:11:21.551Z,17.32
2019-02-27T00:13:58.555Z,15.70
2019-02-27T00:16:37.355Z,16.30
2019-02-27T00:19:08.482Z,17.50
2019-02-27T00:21:40.921Z,17.10
2019-02-27T00:24:15.547Z,15.83
2019-02-27T00:26:47.058Z,16.27
2019-02-27T00:29:20.942Z,15.40
2019-02-27T00:31:51.836Z,15.13
2019-02-27T00:34:24.698Z,16.27
2019-02-27T00:36:58.033Z,16.50
2019-02-27T00:39:31.291Z,17.07
2019-02-27T00:42:07.037Z,19.25
2019-02-27T00:44:39.133Z,22.62
2019-02-27T00:47:09.946Z,27.30
2019-02-27T00:49:44.782Z,30.40
2019-02-27T00:52:18.051Z,27.52
2019-02-27T00:54:44.282Z,24.95
2019-02-27T00:57:20.596Z,24.75
2019-02-27T00:59:47.610Z,22.85
2019-02-27T01:02:20.248Z,22.02
2019-02-27T01:04:49.881Z,23.38
2019-02-27T01:07:20.658Z,23.87
2019-02-27T01:09:49.847Z,25.20
2019-02-27T01:12:25.234Z,23.02
2019-02-27T01:14:54.328Z,18.67
2019-02-27T01:17:24.811Z,20.17
2019-02-27T01:19:53.930Z,17.82
2019-02-27T01:22:24.536Z,18.65
2019-02-27T01:24:55.603Z,16.25
2019-02-27T01:27:26.511Z,16.95
2019-02-27T01:30:00.728Z,17.77
2019-02-27T01:32:32.522Z,18.65
2019-02-27T01:35:06.012Z,17.67
2019-02-27T01:40:08.180Z,15.88
2019-02-27T01:42:40.351Z,17.42
2019-02-27T01:45:20.710Z,17.95
2019-02-27T01:47:53.016Z,17.82
2019-02-27T01:50:29.966Z,17.65
2019-02-27T01:53:07.034Z,17.57
2019-02-27T01:55:40.317Z,16.77
2019-02-27T01:58:12.892Z,16.70
2019-02-27T02:00:43.943Z,17.00
2019-02-27T02:03:16.529Z,17.27
2019-02-27T02:05:48.479Z,15.70
2019-02-27T02:08:20.801Z,16.95
2019-02-27T02:10:52.134Z,18.70
2019-02-27T02:13:42.884Z,15.40
2019-02-27T02:16:39.847Z,16.65
2019-02-27T02:19:41.684Z,16.32
2019-02-27T02:22:25.254Z,17.30
2019-02-27T02:25:54.020Z,15.80
2019-02-27T02:29:09.091Z,17.90
2019-02-27T02:31:50.999Z,16.90
2019-02-27T02:34:51.415Z,17.85
2019-02-27T02:37:51.179Z,18.60
2019-02-27T02:40:52.495Z,17.80
2019-02-27T02:43:47.617Z,16.30
2019-02-27T02:46:33.971Z,18.20
2019-02-27T02:49:44.023Z,14.90
2019-02-27T02:53:06.156Z,16.87
2019-02-27T02:56:03.486Z,15.70
2019-02-27T02:59:07.869Z,16.00
2019-02-27T03:01:53.868Z,16.60
2019-02-27T03:04:59.674Z,17.37
2019-02-27T03:07:49.027Z,17.62
2019-02-27T03:10:52.799Z,17.23
2019-02-27T03:13:45.669Z,16.20
2019-02-27T03:16:44.085Z,18.02
2019-02-27T03:19:28.307Z,19.25
2019-02-27T03:22:24.937Z,18.37
2019-02-27T03:25:16.082Z,18.12
2019-02-27T03:28:46.072Z,19.55
2019-02-27T03:31:37.571Z,17.77
2019-02-27T03:34:47.994Z,17.23
2019-02-27T03:37:24.650Z,18.30
2019-02-27T03:40:36.453Z,20.20
2019-02-27T03:43:54.167Z,20.10
2019-02-27T03:46:54.515Z,19.05
2019-02-27T03:49:40.969Z,19.37
2019-02-27T03:52:50.152Z,19.20
2019-02-27T03:55:46.043Z,18.30
2019-02-27T03:58:43.651Z,19.02
2019-02-27T04:01:46.081Z,17.17
2019-02-27T04:04:37.222Z,17.60
2019-02-27T04:07:44.355Z,18.42
2019-02-27T04:10:17.928Z,17.50
2019-02-27T04:12:54.212Z,19.75
2019-02-27T04:15:23.264Z,19.12
2019-02-27T04:17:52.372Z,19.95
2019-02-27T04:20:26.838Z,20.30
2019-02-27T04:23:03.005Z,18.67
2019-02-27T04:25:32.273Z,18.73
2019-02-27T04:28:05.076Z,19.17
2019-02-27T04:30:34.890Z,19.50
2019-02-27T04:33:08.670Z,18.45
2019-02-27T04:35:45.548Z,19.40
2019-02-27T04:38:15.814Z,17.20
2019-02-27T04:40:46.177Z,17.05
2019-02-27T04:43:17.000Z,17.55
2019-02-27T04:45:48.684Z,18.17
2019-02-27T04:48:24.362Z,18.35
2019-02-27T04:50:53.963Z,20.77
2019-02-27T04:53:24.945Z,20.85
2019-02-27T04:55:57.288Z,20.65
2019-02-27T04:58:35.865Z,20.62
2019-02-27T05:01:10.750Z,18.75
2019-02-27T05:03:47.416Z,19.35
2019-02-27T05:06:18.085Z,19.27
2019-02-27T05:08:55.038Z,19.07
2019-02-27T05:11:28.677Z,19.70
2019-02-27T05:14:32.418Z,19.27
2019-02-27T05:17:15.576Z,20.43
2019-02-27T05:19:44.126Z,20.02
2019-02-27T05:22:12.652Z,19.48
2019-02-27T05:24:45.314Z,19.98
2019-02-27T05:27:14.608Z,21.23
2019-02-27T05:29:46.160Z,18.95
2019-02-27T05:32:18.207Z,20.32
2019-02-27T05:34:49.932Z,18.32
2019-02-27T05:37:22.798Z,19.90
2019-02-27T05:39:52.599Z,20.50
2019-02-27T05:42:22.190Z,21.60
2019-02-27T05:44:56.927Z,19.67
2019-02-27T05:47:29.277Z,19.73
2019-02-27T05:50:01.818Z,20.27
2019-02-27T05:52:32.756Z,19.70
2019-02-27T05:55:06.131Z,20.27
2019-02-27T05:57:39.009Z,19.42
2019-02-27T06:00:12.610Z,20.48
2019-02-27T06:02:46.206Z,17.95
2019-02-27T06:05:22.865Z,18.35
2019-02-27T06:08:03.136Z,19.10
2019-02-27T06:10:33.987Z,18.30
2019-02-27T06:13:02.948Z,18.50
2019-02-27T06:15:35.710Z,18.70
2019-02-27T06:18:06.283Z,18.87
2019-02-27T06:20:38.939Z,19.87
2019-02-27T06:23:31.357Z,20.40
2019-02-27T06:26:09.129Z,19.75
2019-02-27T06:28:43.531Z,19.35
2019-02-27T06:31:16.125Z,20.88
2019-02-27T06:33:51.632Z,19.62
2019-02-27T06:36:26.364Z,19.25
2019-02-27T06:39:01.407Z,19.65
2019-02-27T06:41:34.759Z,18.70
2019-02-27T06:46:34.543Z,19.30
2019-02-27T06:49:05.731Z,18.90
2019-02-27T06:51:36.602Z,18.50
2019-02-27T06:54:05.823Z,21.05
2019-02-27T06:56:36.807Z,20.65
2019-02-27T06:59:09.013Z,20.70
2019-02-27T07:01:41.027Z,19.55
2019-02-27T07:04:16.050Z,19.23
2019-02-27T07:06:49.669Z,19.73
2019-02-27T07:09:21.595Z,18.20
2019-02-27T07:11:59.633Z,20.02
2019-02-27T07:14:28.368Z,19.87
2019-02-27T07:17:02.364Z,19.02
2019-02-27T07:19:34.546Z,18.82
2019-02-27T07:22:06.306Z,21.52
2019-02-27T07:24:54.759Z,19.45
2019-02-27T07:27:25.328Z,17.50
2019-02-27T07:29:59.399Z,18.80
2019-02-27T07:32:36.521Z,18.85
2019-02-27T07:35:12.275Z,17.98
2019-02-27T07:37:47.961Z,18.07
2019-02-27T07:40:18.530Z,18.35
2019-02-27T07:42:47.843Z,16.15
2019-02-27T07:45:17.154Z,17.92
2019-02-27T07:47:48.278Z,18.30
2019-02-27T07:50:18.307Z,18.12
2019-02-27T07:52:53.136Z,18.07
2019-02-27T07:55:28.223Z,17.87
2019-02-27T07:58:00.537Z,17.35
2019-02-27T08:00:35.887Z,18.65
2019-02-27T08:03:09.051Z,17.42
2019-02-27T08:05:46.035Z,19.35
2019-02-27T08:08:16.958Z,18.95
2019-02-27T08:10:52.457Z,19.23
2019-02-27T08:13:21.216Z,18.00
2019-02-27T08:15:54.612Z,19.35
2019-02-27T08:18:36.562Z,17.95
2019-02-27T08:21:04.100Z,21.33
2019-02-27T08:23:35.980Z,18.30
2019-02-27T08:26:06.148Z,18.67
2019-02-27T08:28:36.053Z,18.98
2019-02-27T08:31:07.597Z,17.50
2019-02-27T08:33:37.826Z,17.42
2019-02-27T08:36:10.291Z,17.17
2019-02-27T08:38:39.438Z,16.27
2019-02-27T08:41:09.911Z,17.23
2019-02-27T08:43:41.239Z,18.50
2019-02-27T08:46:13.008Z,19.73
2019-02-27T08:48:49.900Z,20.75
2019-02-27T08:51:17.762Z,23.27
2019-02-27T08:53:53.804Z,18.75
2019-02-27T08:56:25.820Z,17.20
2019-02-27T08:58:55.779Z,18.05
2019-02-27T09:01:29.038Z,17.92
2019-02-27T09:03:57.961Z,18.25
2019-02-27T09:06:28.341Z,20.82
2019-02-27T09:09:04.465Z,17.48
2019-02-27T09:11:42.382Z,18.95
2019-02-27T09:14:15.107Z,18.50
2019-02-27T09:16:43.715Z,19.30
2019-02-27T09:21:41.701Z,19.60
2019-02-27T09:24:17.855Z,17.25
2019-02-27T09:26:54.041Z,17.15
2019-02-27T09:29:25.444Z,17.17
2019-02-27T09:31:57.040Z,15.30
2019-02-27T09:34:32.755Z,17.20
2019-02-27T09:37:02.306Z,16.37
2019-02-27T09:39:35.240Z,17.32
2019-02-27T09:42:09.253Z,14.60
2019-02-27T09:44:44.999Z,16.95
2019-02-27T09:47:16.060Z,15.95
2019-02-27T09:49:46.700Z,15.80
2019-02-27T09:52:17.550Z,16.32
2019-02-27T09:54:51.520Z,16.95
2019-02-27T09:57:23.459Z,16.37
2019-02-27T09:59:57.210Z,15.63
2019-02-27T10:02:26.186Z,17.05
2019-02-27T10:05:01.417Z,16.40
2019-02-27T10:07:32.166Z,16.90
2019-02-27T10:10:10.218Z,16.95
2019-02-27T10:12:42.286Z,17.90
2019-02-27T10:15:16.109Z,17.82
2019-02-27T10:20:16.409Z,16.80
2019-02-27T10:22:45.583Z,16.70
2019-02-27T10:25:17.217Z,15.60
2019-02-27T10:27:49.517Z,16.55
2019-02-27T10:30:21.896Z,17.07
2019-02-27T10:32:54.249Z,16.57
2019-02-27T10:35:29.379Z,15.93
2019-02-27T10:37:59.817Z,16.45
2019-02-27T10:40:32.067Z,21.35
2019-02-27T10:43:03.797Z,17.07
2019-02-27T10:45:42.102Z,16.27
2019-02-27T10:48:13.389Z,16.62
2019-02-27T10:50:46.001Z,15.88
2019-02-27T10:53:27.469Z,16.48
2019-02-27T10:55:58.870Z,15.88
2019-02-27T10:58:33.751Z,14.47
2019-02-27T11:01:09.641Z,14.05
2019-02-27T11:03:39.793Z,15.48
2019-02-27T11:06:12.450Z,16.10
2019-02-27T11:08:43.311Z,14.47
2019-02-27T11:11:13.193Z,14.90
2019-02-27T11:13:51.728Z,12.95
2019-02-27T11:16:25.332Z,14.60
2019-02-27T11:18:57.727Z,14.63
2019-02-27T11:21:29.586Z,13.58
2019-02-27T11:24:02.799Z,14.13
2019-02-27T11:26:41.915Z,14.28
2019-02-27T11:29:14.085Z,13.72
2019-02-27T11:31:45.593Z,12.30
2019-02-27T11:34:16.149Z,13.03
2019-02-27T11:36:45.145Z,12.93
2019-02-27T11:39:16.630Z,13.62
2019-02-27T11:41:49.180Z,13.13
2019-02-27T11:44:21.832Z,13.65
2019-02-27T11:46:58.620Z,12.88
2019-02-27T11:49:29.655Z,13.68
2019-02-27T11:54:33.888Z,12.68
2019-02-27T11:57:07.669Z,11.90
2019-02-27T12:02:10.365Z,12.30
2019-02-27T12:04:41.100Z,13.45
2019-02-27T12:07:12.297Z,15.18
2019-02-27T12:09:43.984Z,14.75
2019-02-27T12:12:14.199Z,13.03
2019-02-27T12:14:47.855Z,12.80
2019-02-27T12:17:18.205Z,12.80
2019-02-27T12:19:53.588Z,12.85
2019-02-27T12:22:24.414Z,13.03
2019-02-27T12:25:00.872Z,13.50
2019-02-27T12:27:48.787Z,13.20
2019-02-27T12:30:14.126Z,13.20
2019-02-27T12:32:46.260Z,13.00
2019-02-27T12:35:20.834Z,13.15
2019-02-27T12:37:51.424Z,12.60
2019-02-27T12:40:24.997Z,12.28
2019-02-27T12:45:29.694Z,12.43
2019-02-27T12:48:04.583Z,11.45
2019-02-27T12:50:38.592Z,12.05
2019-02-27T12:53:08.000Z,10.98
2019-02-27T12:55:38.475Z,12.18
2019-02-27T12:58:09.135Z,11.40
2019-02-27T13:00:39.929Z,12.00
2019-02-27T13:03:13.048Z,11.50
2019-02-27T13:05:51.673Z,11.95
2019-02-27T13:08:26.924Z,13.32
2019-02-27T13:10:57.484Z,11.05
2019-02-27T13:13:26.521Z,12.73
2019-02-27T13:15:57.088Z,11.55
2019-02-27T13:18:32.030Z,11.57
2019-02-27T13:21:01.555Z,10.43
2019-02-27T13:23:36.381Z,11.18
2019-02-27T13:26:08.508Z,11.25
2019-02-27T13:28:41.446Z,10.90
2019-02-27T13:31:13.655Z,11.40
2019-02-27T13:33:48.316Z,10.72
2019-02-27T13:36:20.308Z,10.28
2019-02-27T13:38:51.971Z,11.33
2019-02-27T13:41:20.572Z,9.58
2019-02-27T13:43:49.517Z,9.43
2019-02-27T13:46:22.723Z,10.10
2019-02-27T13:48:55.571Z,10.05
2019-02-27T13:51:29.059Z,10.03
2019-02-27T13:54:00.547Z,9.90
2019-02-27T13:56:30.830Z,10.10
2019-02-27T13:59:02.910Z,9.95
2019-02-27T14:01:34.576Z,11.33
2019-02-27T14:04:08.613Z,10.18
2019-02-27T14:06:42.858Z,9.55
2019-02-27T14:09:19.020Z,9.78
2019-02-27T14:11:51.325Z,8.85
2019-02-27T14:14:23.948Z,9.30
2019-02-27T14:16:57.632Z,8.98
2019-02-27T14:19:28.198Z,8.63
2019-02-27T14:21:56.799Z,9.28
2019-02-27T14:24:25.816Z,9.15
2019-02-27T14:26:54.425Z,9.43
2019-02-27T14:29:29.795Z,9.65
2019-02-27T14:32:04.714Z,9.70
2019-02-27T14:34:35.888Z,9.95
2019-02-27T14:37:08.270Z,10.32
2019-02-27T14:39:38.190Z,9.45
2019-02-27T14:42:10.216Z,10.20
2019-02-27T14:44:41.119Z,9.48
2019-02-27T14:47:16.435Z,9.73
2019-02-27T14:49:47.155Z,10.08
2019-02-27T14:52:16.289Z,11.10
2019-02-27T14:54:45.145Z,9.35
2019-02-27T14:57:16.100Z,9.70
2019-02-27T14:59:47.581Z,9.40
2019-02-27T15:02:22.415Z,9.35
2019-02-27T15:04:56.647Z,9.50
2019-02-27T15:07:27.152Z,8.68
2019-02-27T15:09:57.163Z,9.83
2019-02-27T15:12:33.948Z,9.73
2019-02-27T15:15:02.959Z,10.45
2019-02-27T15:17:38.786Z,9.45
2019-02-27T15:20:09.497Z,9.95
2019-02-27T15:22:38.562Z,9.45
2019-02-27T15:25:12.428Z,8.13
2019-02-27T15:27:41.460Z,8.88
2019-02-27T15:30:28.068Z,8.78
2019-02-27T15:32:56.991Z,8.80
2019-02-27T15:35:28.440Z,9.25
2019-02-27T15:37:57.573Z,8.58
2019-02-27T15:40:33.829Z,8.73
2019-02-27T15:43:11.010Z,10.43
2019-02-27T15:45:35.303Z,9.45
2019-02-27T15:48:06.879Z,9.48
2019-02-27T15:50:38.016Z,8.33
2019-02-27T15:53:07.227Z,9.48
2019-02-27T15:55:39.266Z,8.38
2019-02-27T15:58:11.724Z,7.60
2019-02-27T16:00:44.124Z,8.40
2019-02-27T16:03:13.131Z,7.78
2019-02-27T16:05:47.381Z,8.48
2019-02-27T16:08:16.372Z,8.10
2019-02-27T16:10:54.770Z,8.10
2019-02-27T16:13:19.427Z,9.70
2019-02-27T16:15:49.307Z,11.60
2019-02-27T16:18:22.748Z,9.33
2019-02-27T16:20:51.820Z,8.55
2019-02-27T16:23:23.843Z,8.50
2019-02-27T16:25:54.933Z,8.23
2019-02-27T16:28:25.576Z,8.25
2019-02-27T16:31:05.944Z,8.53
2019-02-27T16:33:31.827Z,8.83
2019-02-27T16:36:02.521Z,8.33
2019-02-27T16:38:33.741Z,9.60
2019-02-27T16:41:04.517Z,10.05
2019-02-27T16:43:33.485Z,9.65
2019-02-27T16:46:07.687Z,10.68
2019-02-27T16:48:35.660Z,9.70
2019-02-27T16:51:04.728Z,10.43
2019-02-27T16:53:33.652Z,10.35
2019-02-27T16:56:11.860Z,13.72
2019-02-27T16:58:41.642Z,12.55
2019-02-27T17:01:12.159Z,11.68
2019-02-27T17:03:41.370Z,12.80
2019-02-27T17:06:10.430Z,12.28
2019-02-27T17:08:42.762Z,11.68
2019-02-27T17:11:16.569Z,10.10
2019-02-27T17:16:15.339Z,9.88
2019-02-27T17:18:44.617Z,10.58
2019-02-27T17:21:16.521Z,12.82
2019-02-27T17:23:46.703Z,13.88
2019-02-27T17:26:15.602Z,12.60
2019-02-27T17:28:44.422Z,13.15
2019-02-27T17:31:13.622Z,16.85
2019-02-27T17:33:42.700Z,14.18
2019-02-27T17:36:13.658Z,17.17
2019-02-27T17:38:45.253Z,14.60
2019-02-27T17:41:16.162Z,16.30
2019-02-27T17:43:45.910Z,17.90
2019-02-27T17:46:14.938Z,18.90
2019-02-27T17:48:45.947Z,20.27
2019-02-27T17:51:14.821Z,18.50
2019-02-27T17:53:45.894Z,19.48
2019-02-27T17:56:15.663Z,19.30
2019-02-27T17:58:45.279Z,18.42
2019-02-27T18:01:16.508Z,15.60
2019-02-27T18:04:05.706Z,16.30
2019-02-27T18:06:36.632Z,14.75
2019-02-27T18:09:30.404Z,15.65
2019-02-27T18:11:59.259Z,14.98
2019-02-27T18:14:28.188Z,15.08
2019-02-27T18:16:59.211Z,14.78
2019-02-27T18:19:28.159Z,13.28
2019-02-27T18:21:57.366Z,12.98
2019-02-27T18:24:26.438Z,15.10
2019-02-27T18:26:55.300Z,13.88
2019-02-27T18:29:28.748Z,14.25
2019-02-27T18:32:01.190Z,16.67
2019-02-27T18:34:28.524Z,15.65
2019-02-27T18:37:00.703Z,15.08
2019-02-27T18:39:29.846Z,17.32
2019-02-27T18:42:00.048Z,15.85
2019-02-27T18:44:29.289Z,15.23
2019-02-27T18:47:02.411Z,15.78
2019-02-27T18:49:32.314Z,17.77
2019-02-27T18:52:06.410Z,16.27
2019-02-27T18:54:32.357Z,13.65
2019-02-27T18:57:03.308Z,14.58
2019-02-27T18:59:32.113Z,19.17
2019-02-27T19:02:07.393Z,23.77
2019-02-27T19:04:36.617Z,24.65
2019-02-27T19:07:05.688Z,21.33
2019-02-27T19:09:34.792Z,23.62
2019-02-27T19:12:05.542Z,18.87
2019-02-27T19:14:36.750Z,20.23
2019-02-27T19:17:07.214Z,19.40
2019-02-27T19:19:38.026Z,20.32
2019-02-27T19:22:08.038Z,19.35
2019-02-27T19:24:41.498Z,21.50
2019-02-27T19:27:10.801Z,19.98
2019-02-27T19:29:40.094Z,21.35
2019-02-27T19:32:09.210Z,19.60
2019-02-27T19:34:38.329Z,18.65
2019-02-27T19:37:07.382Z,20.68
2019-02-27T19:39:38.254Z,18.35
2019-02-27T20:09:56.453Z,17.40
2019-02-27T20:12:25.306Z,17.55
2019-02-27T20:14:54.251Z,17.85
2019-02-27T20:17:32.853Z,17.15
2019-02-27T20:20:00.530Z,18.48
2019-02-27T20:22:30.041Z,18.00
2019-02-27T20:25:02.405Z,17.50
2019-02-27T20:27:31.706Z,17.27
2019-02-27T20:30:00.454Z,16.85
2019-02-27T20:32:30.058Z,19.10
2019-02-27T20:34:59.882Z,15.83
2019-02-27T20:37:28.819Z,16.15
2019-02-27T20:39:59.160Z,18.65
2019-02-27T20:42:28.264Z,17.45
2019-02-27T20:44:59.231Z,16.85
2019-02-27T20:47:27.859Z,18.98
2019-02-27T20:49:58.249Z,18.00
2019-02-27T20:52:27.761Z,17.10
2019-02-27T20:54:58.928Z,15.98
2019-02-27T20:57:27.903Z,15.83
2019-02-27T21:00:00.498Z,15.53
2019-02-27T21:02:28.119Z,16.02
2019-02-27T21:04:57.323Z,16.87
2019-02-27T21:07:29.526Z,15.48
2019-02-27T21:09:58.970Z,16.02
2019-02-27T21:12:27.820Z,15.03
2019-02-27T21:14:58.586Z,15.38
2019-02-27T21:17:27.899Z,15.95
2019-02-27T21:19:59.723Z,16.90
2019-02-27T21:22:28.469Z,16.37
2019-02-27T21:24:57.893Z,15.75
2019-02-27T21:27:28.529Z,16.50
2019-02-27T21:29:57.502Z,16.12
2019-02-27T21:32:37.951Z,15.58
2019-02-27T21:35:07.039Z,16.42
2019-02-27T21:37:35.789Z,16.70
2019-02-27T21:40:04.827Z,15.65
2019-02-27T21:42:33.855Z,15.00
2019-02-27T21:45:03.598Z,16.25
2019-02-27T21:47:35.793Z,16.62
2019-02-27T21:50:07.123Z,15.25
2019-02-27T21:52:37.470Z,15.80
2019-02-27T21:55:06.483Z,16.07
2019-02-27T21:57:36.868Z,16.12
2019-02-27T22:00:11.381Z,17.02
2019-02-27T22:02:40.414Z,16.48
2019-02-27T22:05:09.849Z,18.15
2019-02-27T22:07:38.630Z,16.12
2019-02-27T22:10:09.028Z,14.60
2019-02-27T22:12:38.066Z,16.55
2019-02-27T22:15:13.426Z,15.43
2019-02-27T22:17:42.404Z,17.20
2019-02-27T22:20:12.333Z,16.90
2019-02-27T22:22:42.358Z,15.55
2019-02-27T22:25:11.155Z,15.10
2019-02-27T22:27:39.864Z,15.18
2019-02-27T22:30:10.917Z,14.80
2019-02-27T22:32:40.412Z,14.60
2019-02-27T22:35:09.522Z,14.43
2019-02-27T22:37:38.344Z,14.15
2019-02-27T22:40:08.536Z,15.13
2019-02-27T22:42:39.724Z,14.28
2019-02-27T22:45:09.283Z,14.40
2019-02-27T22:47:40.031Z,13.83
2019-02-27T22:50:10.213Z,14.80
2019-02-27T22:52:39.326Z,14.05
2019-02-27T22:55:10.728Z,14.55
2019-02-27T22:57:40.634Z,14.38
2019-02-27T23:00:42.967Z,15.63
2019-02-27T23:03:11.091Z,14.65
2019-02-27T23:05:40.260Z,14.33
2019-02-27T23:08:10.938Z,15.35
2019-02-27T23:10:40.090Z,14.73
2019-02-27T23:13:12.435Z,14.85
2019-02-27T23:15:41.339Z,15.38
2019-02-27T23:18:10.097Z,15.28
2019-02-27T23:20:39.604Z,15.60
2019-02-27T23:23:08.412Z,14.75
2019-02-27T23:25:39.479Z,14.35
2019-02-27T23:28:08.895Z,16.45
2019-02-27T23:30:37.639Z,15.10
2019-02-27T23:33:06.894Z,16.55
2019-02-27T23:35:35.766Z,16.75
2019-02-27T23:38:05.772Z,14.47
2019-02-27T23:40:36.278Z,16.25
2019-02-27T23:43:04.989Z,14.55
2019-02-27T23:45:33.809Z,16.95
2019-02-27T23:48:03.057Z,15.25
2019-02-27T23:50:31.862Z,15.85
2019-02-27T23:53:02.575Z,15.70
2019-02-27T23:55:31.621Z,15.88
2019-02-27T23:58:00.697Z,15.30
